Time;durP1;ratioP1;P1;durP2;ratioP2;P2;SDS_P1;SDS_P2;PMS_P1;PMS_P2;Temp;Humidity;BMP_temperature;BMP_pressure;BME280_temperature;BME280_humidity;BME280_pressure;Samples;Min_cycle;Max_cycle;Signal;HPM_P1;HPM_P2
2022/04/22 00:00:22;;;;;;;9.35;4.30;;;;;;;9.66;nan;101336.78;5066493;28;20486;-81
2022/04/22 00:02:48;;;;;;;9.55;3.83;;;;;;;9.59;nan;101332.59;5067392;28;20020;-80
2022/04/22 00:05:13;;;;;;;8.07;4.03;;;;;;;9.48;nan;101330.66;5068662;28;20284;-81
2022/04/22 00:07:39;;;;;;;13.07;4.35;;;;;;;9.34;nan;101330.03;5066424;28;20040;-81
2022/04/22 00:10:06;;;;;;;10.00;4.05;;;;;;;9.17;nan;101329.84;5068564;28;20067;-81
2022/04/22 00:12:31;;;;;;;9.27;4.30;;;;;;;9.10;nan;101326.41;5069510;28;20112;-80
2022/04/22 00:14:57;;;;;;;7.85;3.63;;;;;;;9.02;nan;101327.53;5074547;28;21881;-80
2022/04/22 00:17:22;;;;;;;10.20;3.75;;;;;;;8.93;nan;101325.38;5075909;28;20028;-81
2022/04/22 00:19:48;;;;;;;9.27;3.60;;;;;;;8.83;nan;101322.44;5069786;28;20020;-81
2022/04/22 00:22:14;;;;;;;7.93;4.25;;;;;;;8.75;nan;101324.34;5075008;28;20114;-81
2022/04/22 00:24:39;;;;;;;9.38;4.20;;;;;;;8.69;nan;101316.41;5072067;28;20044;-81
2022/04/22 00:27:05;;;;;;;12.02;4.45;;;;;;;8.62;nan;101324.50;5074801;28;20599;-80
2022/04/22 00:29:30;;;;;;;10.68;4.63;;;;;;;8.58;nan;101320.59;5074398;28;20052;-80
2022/04/22 00:31:56;;;;;;;8.13;4.53;;;;;;;8.51;nan;101330.53;5066279;28;20084;-81
2022/04/22 00:34:22;;;;;;;8.75;4.03;;;;;;;8.45;nan;101326.09;5073901;28;20077;-80
2022/04/22 00:36:47;;;;;;;11.07;4.22;;;;;;;8.39;nan;101316.28;5072770;28;20020;-80
2022/04/22 00:39:12;;;;;;;9.88;4.75;;;;;;;8.33;nan;101317.13;5067420;28;20032;-80
2022/04/22 00:41:38;;;;;;;12.55;4.45;;;;;;;8.29;nan;101318.59;5064270;28;20040;-80
2022/04/22 00:44:04;;;;;;;7.90;4.35;;;;;;;8.22;nan;101312.50;5068614;28;20028;-80
2022/04/22 00:46:29;;;;;;;13.80;4.95;;;;;;;8.15;nan;101321.38;5066913;28;20037;-81
2022/04/22 00:48:55;;;;;;;10.18;4.25;;;;;;;8.10;nan;101318.56;5065092;28;20031;-80
2022/04/22 00:51:22;;;;;;;11.40;4.30;;;;;;;8.05;nan;101310.38;5067604;28;20028;-80
2022/04/22 00:53:49;;;;;;;11.25;5.13;;;;;;;8.01;nan;101303.84;5063410;28;20027;-80
2022/04/22 00:56:15;;;;;;;9.00;4.38;;;;;;;7.97;nan;101307.16;5062635;28;21295;-80
2022/04/22 00:58:46;;;;;;;11.18;4.70;;;;;;;7.89;nan;101306.38;5062726;28;20032;-81
2022/04/22 01:01:12;;;;;;;9.10;4.25;;;;;;;7.85;nan;101309.69;5061029;28;20128;-80
2022/04/22 01:03:38;;;;;;;8.80;4.28;;;;;;;7.77;nan;101300.13;5061882;28;20108;-80
2022/04/22 01:11:37;;;;;;;12.82;4.13;;;;;;;7.63;nan;101292.41;5064235;28;20039;-81
2022/04/22 01:14:05;;;;;;;9.77;4.45;;;;;;;7.58;nan;101293.88;5074928;28;20024;-80
2022/04/22 01:16:31;;;;;;;9.68;4.32;;;;;;;7.52;nan;101289.38;5072877;28;20063;-80
2022/04/22 01:18:57;;;;;;;8.70;4.60;;;;;;;7.35;nan;101282.94;5052128;28;20087;-80
2022/04/22 01:21:22;;;;;;;10.10;4.85;;;;;;;7.20;nan;101280.56;5075006;28;20520;-80
2022/04/22 01:23:48;;;;;;;11.57;5.18;;;;;;;7.06;nan;101279.00;5075124;28;20426;-81
2022/04/22 01:26:14;;;;;;;11.15;5.07;;;;;;;6.96;nan;101274.09;5066336;28;20452;-80
2022/04/22 01:28:41;;;;;;;12.05;5.65;;;;;;;6.86;nan;101272.91;5068465;28;20071;-80
2022/04/22 01:31:07;;;;;;;9.88;5.00;;;;;;;6.77;nan;101269.66;5067623;28;20565;-81
2022/04/22 01:33:32;;;;;;;13.07;5.47;;;;;;;6.78;nan;101273.97;5072730;28;20024;-80
2022/04/22 01:35:58;;;;;;;11.50;5.50;;;;;;;6.85;nan;101285.44;5065465;28;20021;-79
2022/04/22 01:38:24;;;;;;;8.93;5.55;;;;;;;6.91;nan;101289.91;5066026;28;20462;-80
2022/04/22 01:40:50;;;;;;;11.80;5.57;;;;;;;6.94;nan;101276.16;5068550;28;20460;-81
2022/04/22 01:43:16;;;;;;;14.35;5.07;;;;;;;6.93;nan;101263.06;5069157;28;20028;-80
2022/04/22 01:45:42;;;;;;;9.38;5.13;;;;;;;6.90;nan;101271.47;5068291;28;20033;-80
2022/04/22 01:48:07;;;;;;;10.18;5.15;;;;;;;6.87;nan;101264.72;5071943;28;20028;-80
2022/04/22 01:50:33;;;;;;;6.65;4.18;;;;;;;6.85;nan;101268.63;5070487;28;20103;-80
2022/04/22 01:52:59;;;;;;;11.15;5.13;;;;;;;6.81;nan;101260.22;5070166;28;20023;-80
2022/04/22 01:55:26;;;;;;;10.90;4.60;;;;;;;6.68;nan;101262.94;5066640;28;20076;-80
2022/04/22 01:57:53;;;;;;;10.90;4.40;;;;;;;6.63;nan;101257.41;5066313;28;20021;-80
2022/04/22 02:00:18;;;;;;;12.00;4.90;;;;;;;6.60;nan;101261.31;5065135;28;20028;-80
2022/04/22 02:02:44;;;;;;;11.75;4.97;;;;;;;6.59;nan;101262.34;5066255;28;20021;-80
2022/04/22 02:05:10;;;;;;;12.55;5.60;;;;;;;6.56;nan;101259.28;5068069;28;20082;-80
2022/04/22 02:07:35;;;;;;;12.68;5.65;;;;;;;6.54;nan;101264.81;5068013;28;20025;-80
2022/04/22 02:10:01;;;;;;;11.88;5.28;;;;;;;6.54;nan;101261.34;5066625;28;20032;-80
2022/04/22 02:12:26;;;;;;;12.32;6.10;;;;;;;6.52;nan;101266.06;5062389;28;20033;-80
2022/04/22 02:14:52;;;;;;;12.85;5.85;;;;;;;6.45;nan;101263.38;5059683;28;20967;-80
2022/04/22 02:17:18;;;;;;;13.82;6.40;;;;;;;6.38;nan;101261.78;5062530;28;20528;-82
2022/04/22 02:19:44;;;;;;;16.63;6.20;;;;;;;6.38;nan;101262.59;5057908;28;20082;-80
2022/04/22 02:22:10;;;;;;;21.05;10.63;;;;;;;6.36;nan;101273.47;5058239;28;20040;-80
2022/04/22 02:24:35;;;;;;;32.25;16.77;;;;;;;6.33;nan;101267.72;5057508;28;21954;-80
2022/04/22 02:29:45;;;;;;;22.25;11.25;;;;;;;6.29;nan;101259.34;5056192;28;20824;-80
2022/04/22 02:32:10;;;;;;;21.30;10.18;;;;;;;6.21;nan;101259.56;5062106;28;20036;-81
2022/04/22 02:34:36;;;;;;;23.52;11.18;;;;;;;6.11;nan;101256.50;5057881;28;20035;-80
2022/04/22 02:37:01;;;;;;;18.85;9.02;;;;;;;6.07;nan;101255.25;5054466;28;20028;-80
2022/04/22 02:39:27;;;;;;;14.80;7.70;;;;;;;6.06;nan;101253.63;5055913;28;20126;-80
2022/04/22 02:47:21;;;;;;;20.08;9.15;;;;;;;5.91;nan;101245.03;5057461;28;20075;-80
2022/04/22 02:49:47;;;;;;;14.02;8.00;;;;;;;5.89;nan;101244.41;5056449;28;20048;-80
2022/04/22 02:52:13;;;;;;;18.02;8.02;;;;;;;5.85;nan;101230.69;5054486;28;20055;-81
2022/04/22 02:54:39;;;;;;;15.73;7.15;;;;;;;5.83;nan;101237.25;5057967;28;20030;-81
2022/04/22 02:57:06;;;;;;;15.45;6.97;;;;;;;5.74;nan;101231.28;5055642;28;20032;-81
2022/04/22 02:59:32;;;;;;;15.90;6.65;;;;;;;5.71;nan;101229.88;5056645;28;20024;-81
2022/04/22 03:01:59;;;;;;;12.55;6.53;;;;;;;5.71;nan;101247.66;5056527;28;20096;-80
2022/04/22 03:04:26;;;;;;;16.13;6.68;;;;;;;5.70;nan;101249.50;5054537;28;20042;-80
2022/04/22 03:06:51;;;;;;;15.70;9.32;;;;;;;5.66;nan;101236.81;5054144;28;20024;-80
2022/04/22 03:09:17;;;;;;;17.27;9.63;;;;;;;5.50;nan;101218.59;5055367;28;20024;-80
2022/04/22 03:11:43;;;;;;;14.30;8.25;;;;;;;5.38;nan;101213.88;5060664;28;20103;-80
2022/04/22 03:14:08;;;;;;;17.50;7.00;;;;;;;5.30;nan;101213.28;5065959;28;20051;-80
2022/04/22 03:16:35;;;;;;;12.63;7.28;;;;;;;5.29;nan;101216.94;5066138;28;20051;-81
2022/04/22 03:19:01;;;;;;;14.60;6.65;;;;;;;5.32;nan;101221.84;5067990;28;20027;-80
2022/04/22 03:21:26;;;;;;;15.73;6.10;;;;;;;5.37;nan;101230.03;5066957;28;20021;-80
2022/04/22 03:23:53;;;;;;;16.80;8.23;;;;;;;5.37;nan;101241.47;5064831;28;20028;-81
2022/04/22 03:26:19;;;;;;;13.00;7.05;;;;;;;5.30;nan;101227.38;5056961;28;20036;-80
2022/04/22 03:28:46;;;;;;;11.23;6.53;;;;;;;5.27;nan;101241.06;5056694;28;20558;-80
2022/04/22 03:31:12;;;;;;;13.85;6.30;;;;;;;5.32;nan;101253.75;5068011;28;20037;-80
2022/04/22 03:33:37;;;;;;;12.95;6.38;;;;;;;5.34;nan;101247.19;5065058;28;20039;-80
2022/04/22 03:36:03;;;;;;;8.75;5.43;;;;;;;5.35;nan;101253.34;5067941;28;20193;-80
2022/04/22 03:38:29;;;;;;;15.00;6.57;;;;;;;5.26;nan;101242.09;5067845;28;20540;-80
2022/04/22 03:40:55;;;;;;;14.15;6.70;;;;;;;5.12;nan;101249.19;5073966;28;20047;-80
2022/04/22 03:43:23;;;;;;;13.38;6.85;;;;;;;5.09;nan;101249.59;5079722;28;20498;-80
2022/04/22 03:45:48;;;;;;;13.02;6.57;;;;;;;5.12;nan;101248.38;5069872;28;20033;-81
2022/04/22 03:48:20;;;;;;;14.35;6.38;;;;;;;5.08;nan;101247.97;5069098;28;20047;-80
2022/04/22 03:50:46;;;;;;;13.70;6.50;;;;;;;5.12;nan;101245.72;5062307;28;20040;-80
2022/04/22 03:53:11;;;;;;;14.02;7.20;;;;;;;5.11;nan;101242.25;5072200;28;20032;-81
2022/04/22 03:55:38;;;;;;;15.18;6.55;;;;;;;5.06;nan;101250.00;5070625;28;20031;-80
2022/04/22 03:58:10;;;;;;;17.50;6.75;;;;;;;5.02;nan;101247.91;5067523;28;20025;-80
2022/04/22 04:00:46;;;;;;;15.43;7.28;;;;;;;4.93;nan;101251.78;5052509;28;20079;-80
2022/04/22 04:03:14;;;;;;;15.70;7.28;;;;;;;4.98;nan;101244.84;5066332;28;20032;-80
2022/04/22 04:05:46;;;;;;;13.30;6.82;;;;;;;4.99;nan;101254.47;5067097;28;20040;-80
2022/04/22 04:08:11;;;;;;;11.85;6.65;;;;;;;5.03;nan;101239.78;5071466;28;20058;-80
2022/04/22 04:16:06;;;;;;;13.75;6.53;;;;;;;5.15;nan;101248.78;5067083;28;20052;-79
2022/04/22 04:18:34;;;;;;;12.73;6.43;;;;;;;5.19;nan;101249.19;5065550;28;20032;-81
2022/04/22 04:23:46;;;;;;;14.60;6.68;;;;;;;5.16;nan;101245.13;5067360;28;20131;-80
2022/04/22 04:26:13;;;;;;;16.45;6.72;;;;;;;5.16;nan;101253.09;5066712;28;20059;-79
2022/04/22 04:28:39;;;;;;;10.98;6.20;;;;;;;5.18;nan;101241.44;5065255;28;20036;-80
2022/04/22 04:31:06;;;;;;;13.45;6.25;;;;;;;5.21;nan;101257.00;5069487;28;20024;-80
2022/04/22 04:33:32;;;;;;;16.83;7.15;;;;;;;5.23;nan;101254.97;5051951;28;20039;-80
2022/04/22 04:35:59;;;;;;;18.10;7.22;;;;;;;5.22;nan;101255.97;5066509;28;20033;-80
2022/04/22 04:38:25;;;;;;;14.40;6.88;;;;;;;5.24;nan;101262.72;5065046;28;20033;-80
2022/04/22 04:40:51;;;;;;;13.73;6.47;;;;;;;5.27;nan;101248.22;5074475;28;20020;-80
2022/04/22 04:43:18;;;;;;;11.13;6.25;;;;;;;5.26;nan;101243.94;5068581;28;20492;-80
2022/04/22 04:45:45;;;;;;;13.95;6.82;;;;;;;5.21;nan;101241.06;5068938;28;20430;-80
2022/04/22 04:48:11;;;;;;;21.75;7.78;;;;;;;5.17;nan;101240.63;5066810;28;20036;-80
2022/04/22 04:50:39;;;;;;;16.17;8.15;;;;;;;5.21;nan;101257.81;5067044;28;20081;-81
2022/04/22 04:53:05;;;;;;;18.70;8.38;;;;;;;5.25;nan;101247.59;5069226;28;20029;-80
2022/04/22 04:55:31;;;;;;;23.13;8.32;;;;;;;5.29;nan;101236.38;5066763;28;20452;-80
2022/04/22 04:57:57;;;;;;;14.70;7.53;;;;;;;5.34;nan;101225.13;5067256;28;20019;-80
2022/04/22 05:00:22;;;;;;;15.68;7.43;;;;;;;5.37;nan;101245.97;5064524;28;20038;-80
2022/04/22 05:02:48;;;;;;;19.77;7.50;;;;;;;5.41;nan;101231.28;5063996;28;20390;-80
2022/04/22 05:05:14;;;;;;;19.15;8.10;;;;;;;5.46;nan;101239.47;5066518;28;20025;-79
2022/04/22 05:07:49;;;;;;;16.20;7.53;;;;;;;5.49;nan;101239.06;5065941;28;20122;-80
2022/04/22 05:10:17;;;;;;;14.18;6.93;;;;;;;5.59;nan;101246.66;5066796;28;20032;-80
2022/04/22 05:12:47;;;;;;;17.83;7.97;;;;;;;5.63;nan;101246.03;5065752;28;20211;-80
2022/04/22 05:15:13;;;;;;;15.98;7.05;;;;;;;5.67;nan;101255.22;5067306;28;20483;-80
2022/04/22 05:17:43;;;;;;;17.85;7.50;;;;;;;5.70;nan;101260.13;5073275;28;20135;-80
2022/04/22 05:20:10;;;;;;;17.48;7.20;;;;;;;5.74;nan;101257.88;5067788;28;20487;-81
2022/04/22 05:22:36;;;;;;;15.52;7.60;;;;;;;5.74;nan;101248.09;5065635;28;20587;-80
2022/04/22 05:25:04;;;;;;;13.80;7.43;;;;;;;5.80;nan;101250.94;5065301;28;20029;-81
2022/04/22 05:27:30;;;;;;;11.10;6.13;;;;;;;5.80;nan;101259.75;5066629;28;20540;-80
2022/04/22 05:32:40;;;;;;;17.20;7.63;;;;;;;5.88;nan;101256.06;5067200;28;20066;-80
2022/04/22 05:35:08;;;;;;;16.58;7.53;;;;;;;5.92;nan;101255.47;5067331;28;20028;-80
2022/04/22 05:37:58;;;;;;;18.35;7.70;;;;;;;5.91;nan;101255.66;5066854;28;20069;-80
2022/04/22 05:40:25;;;;;;;19.05;7.38;;;;;;;5.99;nan;101260.81;5066326;28;20040;-80
2022/04/22 05:42:53;;;;;;;17.23;7.30;;;;;;;6.04;nan;101269.78;5067023;28;20024;-80
2022/04/22 05:45:20;;;;;;;16.38;7.18;;;;;;;6.08;nan;101264.88;5064997;28;20020;-80
2022/04/22 05:47:45;;;;;;;17.60;7.70;;;;;;;6.12;nan;101267.97;5066486;28;20063;-80
2022/04/22 05:50:12;;;;;;;19.45;7.07;;;;;;;6.16;nan;101274.50;5065496;28;20033;-80
2022/04/22 05:52:39;;;;;;;14.15;7.93;;;;;;;6.20;nan;101268.56;5051302;28;20560;-81
2022/04/22 05:55:10;;;;;;;14.02;7.50;;;;;;;6.25;nan;101267.94;5065607;28;20118;-80
2022/04/22 05:57:36;;;;;;;11.23;6.20;;;;;;;6.32;nan;101264.25;5067901;28;20017;-81
2022/04/22 06:00:06;;;;;;;14.68;6.50;;;;;;;6.38;nan;101259.13;5065922;28;20047;-80
2022/04/22 06:02:32;;;;;;;15.20;7.18;;;;;;;6.46;nan;101256.22;5065246;28;20051;-80
2022/04/22 06:04:57;;;;;;;12.73;6.78;;;;;;;6.51;nan;101256.44;5061473;28;20583;-82
2022/04/22 06:07:23;;;;;;;13.80;6.35;;;;;;;6.56;nan;101248.63;5063709;28;20032;-81
2022/04/22 06:12:32;;;;;;;18.20;7.15;;;;;;;6.67;nan;101240.00;5063780;28;20040;-80
2022/04/22 06:15:04;;;;;;;12.55;7.38;;;;;;;6.71;nan;101241.22;5062227;28;20489;-80
2022/04/22 06:17:31;;;;;;;13.18;6.15;;;;;;;6.76;nan;101248.56;5062790;28;20032;-80
2022/04/22 06:19:58;;;;;;;11.40;6.38;;;;;;;6.80;nan;101258.56;5061949;28;21029;-80
2022/04/22 06:22:25;;;;;;;16.85;7.53;;;;;;;6.83;nan;101258.19;5064281;28;20024;-80
2022/04/22 06:24:51;;;;;;;13.68;6.80;;;;;;;6.88;nan;101263.69;5064120;28;20086;-80
2022/04/22 06:27:24;;;;;;;10.10;5.63;;;;;;;6.90;nan;101261.63;5064962;28;20020;-80
2022/04/22 06:29:51;;;;;;;12.23;5.88;;;;;;;6.97;nan;101262.41;5069024;28;20036;-80
2022/04/22 06:32:17;;;;;;;10.93;6.97;;;;;;;7.02;nan;101253.00;5064007;28;20028;-80
2022/04/22 06:34:43;;;;;;;13.43;6.90;;;;;;;7.08;nan;101254.78;5060707;28;20056;-80
2022/04/22 06:37:11;;;;;;;11.02;6.22;;;;;;;7.15;nan;101252.91;5063334;28;20020;-80
2022/04/22 06:47:52;;;;;;;13.80;6.90;;;;;;;7.43;nan;101237.38;5061534;28;20660;-81
2022/04/22 06:50:19;;;;;;;16.90;7.40;;;;;;;7.51;nan;101244.28;5064579;28;20029;-81
2022/04/22 06:52:46;;;;;;;14.07;6.28;;;;;;;7.58;nan;101240.56;5068648;28;20036;-81
2022/04/22 06:55:19;;;;;;;14.15;6.93;;;;;;;7.67;nan;101232.28;5064630;28;21598;-81
2022/04/22 06:57:51;;;;;;;12.15;6.72;;;;;;;7.76;nan;101237.13;5065319;28;21854;-80
2022/04/22 07:00:18;;;;;;;14.98;7.57;;;;;;;7.85;nan;101241.16;5063618;28;20020;-80
2022/04/22 07:02:47;;;;;;;16.15;8.60;;;;;;;7.96;nan;101242.31;5065934;28;20119;-81
2022/04/22 07:05:13;;;;;;;18.08;8.82;;;;;;;8.06;nan;101239.13;5063330;28;20032;-81
2022/04/22 07:07:42;;;;;;;17.00;8.10;;;;;;;8.17;nan;101241.09;5064376;28;20020;-80
2022/04/22 07:10:08;;;;;;;16.33;9.15;;;;;;;8.31;nan;101239.09;5063111;28;20545;-81
2022/04/22 07:12:34;;;;;;;13.75;8.23;;;;;;;8.42;nan;101241.88;5061607;28;20032;-81
2022/04/22 07:15:03;;;;;;;15.85;8.23;;;;;;;8.53;nan;101242.19;5061884;28;20028;-80
2022/04/22 07:17:37;;;;;;;17.38;9.57;;;;;;;8.61;nan;101242.69;5064800;28;20035;-80
2022/04/22 07:20:07;;;;;;;16.67;9.60;;;;;;;8.76;nan;101232.44;5063623;28;20378;-81
2022/04/22 07:22:34;;;;;;;14.70;8.80;;;;;;;8.91;nan;101232.06;5066076;28;20025;-81
2022/04/22 07:25:00;;;;;;;13.30;8.05;;;;;;;9.03;nan;101230.28;5062669;28;20036;-81
2022/04/22 07:27:27;;;;;;;17.90;9.63;;;;;;;9.16;nan;101231.97;5067232;28;20108;-81
2022/04/22 07:29:58;;;;;;;15.82;8.40;;;;;;;9.33;nan;101224.09;5067435;28;20036;-81
2022/04/22 07:32:25;;;;;;;15.15;9.07;;;;;;;9.51;nan;101224.03;5049827;28;20086;-81
2022/04/22 07:34:51;;;;;;;14.20;9.45;;;;;;;9.72;nan;101214.66;5072300;28;20040;-82
2022/04/22 07:37:17;;;;;;;13.23;7.95;;;;;;;9.91;nan;101207.34;5063043;28;20025;-81
2022/04/22 07:39:43;;;;;;;16.45;7.97;;;;;;;10.07;nan;101201.31;5066828;28;20013;-81
2022/04/22 07:42:21;;;;;;;11.80;7.60;;;;;;;10.27;nan;101195.63;5068066;28;20024;-81
2022/04/22 07:47:33;;;;;;;15.85;7.82;;;;;;;10.73;nan;101200.03;5065418;28;20031;-82
2022/04/22 07:50:05;;;;;;;13.25;7.15;;;;;;;10.90;nan;101200.09;5065392;28;20016;-82
2022/04/22 07:52:34;;;;;;;10.23;7.00;;;;;;;11.09;nan;101204.22;5066640;28;20031;-82
2022/04/22 07:55:00;;;;;;;11.23;7.30;;;;;;;11.34;nan;101203.06;5064768;28;20035;-82
2022/04/22 07:57:27;;;;;;;11.95;6.35;;;;;;;11.52;nan;101202.84;5065450;28;20032;-84
2022/04/22 07:59:53;;;;;;;10.65;6.72;;;;;;;11.76;nan;101203.47;5063761;28;20029;-81
2022/04/22 08:02:19;;;;;;;11.48;6.13;;;;;;;11.93;nan;101200.81;5065494;28;20028;-81
2022/04/22 08:04:44;;;;;;;11.48;6.80;;;;;;;12.08;nan;101203.75;5065961;28;20033;-81
2022/04/22 08:07:10;;;;;;;9.50;6.28;;;;;;;12.26;nan;101203.47;5065013;28;20063;-82
2022/04/22 08:09:35;;;;;;;8.82;5.78;;;;;;;12.45;nan;101205.84;5065183;28;20060;-83
2022/04/22 08:12:01;;;;;;;12.95;6.85;;;;;;;12.61;nan;101203.09;5066165;28;21674;-81
2022/04/22 08:14:28;;;;;;;10.55;6.10;;;;;;;12.76;nan;101199.78;5066776;28;20033;-82
2022/04/22 08:16:56;;;;;;;9.73;6.30;;;;;;;12.87;nan;101200.69;5064865;28;20077;-82
2022/04/22 08:19:22;;;;;;;10.25;6.63;;;;;;;13.01;nan;101204.63;5068083;28;20040;-82
2022/04/22 08:21:47;;;;;;;10.45;6.80;;;;;;;13.09;nan;101204.16;5056098;28;20028;-83
2022/04/22 08:24:13;;;;;;;10.15;6.18;;;;;;;13.15;nan;101196.97;5068218;28;20040;-84
2022/04/22 08:26:39;;;;;;;10.05;6.18;;;;;;;13.25;nan;101197.09;5068234;28;20443;-81
2022/04/22 08:29:05;;;;;;;11.07;6.22;;;;;;;13.40;nan;101196.44;5056128;28;20573;-82
2022/04/22 08:31:31;;;;;;;9.20;5.78;;;;;;;13.50;nan;101202.72;5068823;28;20032;-83
2022/04/22 08:33:57;;;;;;;7.70;5.53;;;;;;;13.58;nan;101199.53;5070895;28;20300;-83
2022/04/22 08:36:27;;;;;;;9.13;5.28;;;;;;;13.71;nan;101194.81;5068262;28;20028;-81
2022/04/22 08:38:52;;;;;;;7.13;5.28;;;;;;;13.84;nan;101207.84;5073280;28;20021;-81
2022/04/22 08:41:23;;;;;;;8.93;5.50;;;;;;;13.94;nan;101202.50;5067513;28;20046;-80
2022/04/22 08:43:52;;;;;;;8.40;5.18;;;;;;;14.03;nan;101192.88;5067291;28;20031;-80
2022/04/22 08:51:48;;;;;;;8.60;4.90;;;;;;;14.14;nan;101196.44;5067814;28;20043;-82
2022/04/22 08:54:15;;;;;;;6.93;4.28;;;;;;;14.20;nan;101190.81;5071542;28;20025;-82
2022/04/22 08:56:42;;;;;;;7.22;4.53;;;;;;;14.30;nan;101189.25;5067530;28;20063;-82
2022/04/22 08:59:09;;;;;;;7.70;4.40;;;;;;;14.36;nan;101190.88;5068079;28;20017;-83
2022/04/22 09:01:37;;;;;;;9.32;5.50;;;;;;;14.44;nan;101185.03;5063086;28;20029;-82
2022/04/22 09:04:04;;;;;;;7.03;4.68;;;;;;;14.56;nan;101188.34;5067973;28;20028;-82
2022/04/22 09:06:31;;;;;;;7.95;5.00;;;;;;;14.65;nan;101194.81;5065396;28;20099;-81
2022/04/22 09:09:00;;;;;;;7.20;4.45;;;;;;;14.61;nan;101192.94;5068537;28;20025;-82
2022/04/22 09:11:29;;;;;;;7.10;4.20;;;;;;;14.59;nan;101195.91;5068777;28;20032;-81
2022/04/22 09:13:54;;;;;;;7.57;3.80;;;;;;;14.59;nan;101192.38;5064602;28;20415;-82
2022/04/22 09:16:21;;;;;;;6.93;3.97;;;;;;;14.61;nan;101185.66;5071805;28;20020;-83
2022/04/22 09:18:47;;;;;;;7.15;4.25;;;;;;;14.62;nan;101198.06;5070492;28;20421;-82
2022/04/22 09:21:17;;;;;;;4.95;3.45;;;;;;;14.60;nan;101192.13;5068607;28;20032;-82
2022/04/22 09:23:42;;;;;;;6.63;3.30;;;;;;;14.62;nan;101195.38;5066522;28;20036;-80
2022/04/22 09:26:25;;;;;;;6.43;3.50;;;;;;;14.65;nan;101189.44;5068247;28;20489;-82
2022/04/22 09:29:02;;;;;;;5.03;3.55;;;;;;;14.82;nan;101198.13;5066077;28;20024;-83
2022/04/22 09:31:29;;;;;;;7.53;3.85;;;;;;;15.08;nan;101204.41;5064561;28;20439;-81
2022/04/22 09:33:55;;;;;;;7.68;4.63;;;;;;;15.14;nan;101199.81;5061152;28;20059;-84
2022/04/22 09:42:40;;;;;;;4.20;3.25;;;;;;;15.07;nan;101196.56;5067164;28;20047;-82
2022/04/22 09:45:07;;;;;;;5.57;2.88;;;;;;;15.11;nan;101195.78;5065791;28;20402;-82
2022/04/22 09:47:35;;;;;;;5.93;2.92;;;;;;;15.19;nan;101186.34;5064605;28;20028;-82
2022/04/22 09:50:10;;;;;;;4.85;3.58;;;;;;;15.29;nan;101188.25;5071152;28;20024;-82
2022/04/22 09:52:38;;;;;;;4.80;2.85;;;;;;;15.36;nan;101188.78;5067846;28;20032;-82
2022/04/22 09:55:07;;;;;;;5.20;2.65;;;;;;;15.41;nan;101199.56;5065127;28;20621;-82
2022/04/22 09:57:56;;;;;;;4.65;2.47;;;;;;;15.30;nan;101198.78;5069526;28;20024;-79
2022/04/22 10:00:26;;;;;;;6.03;3.05;;;;;;;15.34;nan;101191.75;5070697;28;20509;-85
2022/04/22 10:02:53;;;;;;;5.15;3.25;;;;;;;15.41;nan;101195.00;5064036;28;20036;-83
2022/04/22 10:05:20;;;;;;;4.95;3.53;;;;;;;15.50;nan;101197.16;5055671;28;20087;-83
2022/04/22 10:07:55;;;;;;;7.20;3.75;;;;;;;15.52;nan;101184.19;5059155;28;20247;-81
2022/04/22 10:10:25;;;;;;;4.85;3.17;;;;;;;15.52;nan;101186.91;5072839;28;20490;-82
2022/04/22 10:12:54;;;;;;;5.10;3.20;;;;;;;15.55;nan;101194.47;5063283;28;20710;-82
2022/04/22 10:15:25;;;;;;;6.00;3.60;;;;;;;15.57;nan;101195.81;5068035;28;20067;-80
2022/04/22 10:17:52;;;;;;;6.25;3.65;;;;;;;15.62;nan;101195.06;5072210;28;20034;-79
2022/04/22 10:20:19;;;;;;;9.27;3.50;;;;;;;15.69;nan;101184.78;5062326;28;20028;-83
2022/04/22 10:22:49;;;;;;;5.35;3.17;;;;;;;15.87;nan;101195.03;5060682;28;20044;-80
2022/04/22 10:25:15;;;;;;;6.13;3.80;;;;;;;16.06;nan;101199.84;5063154;28;20037;-81
2022/04/22 10:27:42;;;;;;;4.88;3.60;;;;;;;16.09;nan;101202.81;5063452;28;20043;-80
2022/04/22 10:30:11;;;;;;;8.48;3.55;;;;;;;15.96;nan;101200.66;5062523;28;20059;-81
2022/04/22 10:32:40;;;;;;;7.80;3.65;;;;;;;15.82;nan;101196.94;5069834;28;20080;-83
2022/04/22 10:35:07;;;;;;;5.30;3.58;;;;;;;15.81;nan;101198.81;5066919;28;20078;-81
2022/04/22 10:37:34;;;;;;;5.45;3.60;;;;;;;15.85;nan;101204.47;5050144;28;20028;-82
2022/04/22 10:40:03;;;;;;;7.22;4.10;;;;;;;15.82;nan;101199.63;5059962;28;20016;-84
2022/04/22 10:42:40;;;;;;;5.43;4.07;;;;;;;15.75;nan;101199.88;5064269;28;20032;-84
2022/04/22 10:47:53;;;;;;;6.22;4.18;;;;;;;15.69;nan;101201.78;5066669;28;20781;-82
2022/04/22 10:50:27;;;;;;;8.43;5.13;;;;;;;15.66;nan;101202.34;5060507;28;20104;-82
2022/04/22 10:53:03;;;;;;;10.35;4.28;;;;;;;15.60;nan;101214.19;5064077;28;20036;-80
2022/04/22 10:55:41;;;;;;;9.10;4.93;;;;;;;15.50;nan;101211.47;5060905;28;20037;-82
2022/04/22 10:58:13;;;;;;;5.50;4.47;;;;;;;15.48;nan;101210.13;5066222;28;20040;-81
2022/04/22 11:00:46;;;;;;;9.07;5.28;;;;;;;15.39;nan;101212.53;5064723;28;20089;-82
2022/04/22 11:03:20;;;;;;;7.63;5.28;;;;;;;15.36;nan;101213.88;5062596;28;20053;-82
2022/04/22 11:05:59;;;;;;;10.03;5.93;;;;;;;15.42;nan;101220.09;5060030;28;20032;-80
2022/04/22 11:08:35;;;;;;;7.82;5.60;;;;;;;15.37;nan;101209.31;5063726;28;20047;-82
2022/04/22 11:11:03;;;;;;;7.57;6.13;;;;;;;15.39;nan;101207.94;5065717;28;20024;-82
2022/04/22 11:13:34;;;;;;;12.60;6.40;;;;;;;15.42;nan;101196.59;5048146;28;20036;-83
2022/04/22 11:16:20;;;;;;;9.80;6.63;;;;;;;15.41;nan;101204.97;5063461;28;20028;-82
2022/04/22 11:19:09;;;;;;;8.98;6.88;;;;;;;15.47;nan;101193.13;5062465;28;20032;-83
2022/04/22 11:21:38;;;;;;;10.20;6.55;;;;;;;15.59;nan;101198.25;5064012;28;20031;-82
2022/04/22 11:24:14;;;;;;;11.10;6.85;;;;;;;15.63;nan;101202.06;5066214;28;21824;-81
2022/04/22 11:26:41;;;;;;;9.75;6.13;;;;;;;15.67;nan;101208.53;5062575;28;20032;-80
2022/04/22 11:29:10;;;;;;;9.73;6.18;;;;;;;15.55;nan;101191.75;5062108;28;20111;-82
2022/04/22 11:31:36;;;;;;;9.02;6.13;;;;;;;15.52;nan;101205.81;5062670;28;20512;-82
2022/04/22 11:34:07;;;;;;;10.82;5.70;;;;;;;15.54;nan;101198.25;5067653;28;20024;-81
2022/04/22 11:36:46;;;;;;;8.70;5.88;;;;;;;15.46;nan;101191.50;5062987;28;20036;-79
2022/04/22 11:39:23;;;;;;;16.15;6.78;;;;;;;15.50;nan;101194.47;5062142;28;21216;-82
2022/04/22 11:41:57;;;;;;;9.18;6.72;;;;;;;15.59;nan;101198.25;5059079;28;20017;-83
2022/04/22 11:44:24;;;;;;;11.35;6.75;;;;;;;15.63;nan;101202.88;5067015;28;20506;-81
2022/04/22 11:46:53;;;;;;;9.82;7.47;;;;;;;15.66;nan;101201.53;5057878;28;20029;-82
2022/04/22 11:49:20;;;;;;;10.45;7.20;;;;;;;15.67;nan;101197.75;5063413;28;20025;-82
2022/04/22 11:51:51;;;;;;;10.23;7.28;;;;;;;15.74;nan;101197.44;5065561;28;20041;-82
2022/04/22 11:54:26;;;;;;;13.05;7.15;;;;;;;15.77;nan;101195.00;5063453;28;20530;-82
2022/04/22 11:56:52;;;;;;;11.75;7.32;;;;;;;15.77;nan;101192.31;5070051;28;20778;-81
2022/04/22 11:59:19;;;;;;;9.00;6.72;;;;;;;15.73;nan;101196.66;5066672;28;20028;-80
2022/04/22 12:10:04;;;;;;;8.20;5.82;;;;;;;15.57;nan;101217.41;5061018;28;20083;-83
2022/04/22 12:12:34;;;;;;;8.30;5.60;;;;;;;15.63;nan;101212.88;5073739;28;20044;-82
2022/04/22 12:15:01;;;;;;;9.93;6.10;;;;;;;15.64;nan;101217.19;5070972;28;20031;-82
2022/04/22 12:17:27;;;;;;;8.32;5.75;;;;;;;15.56;nan;101212.28;5071928;28;20636;-83
2022/04/22 12:19:54;;;;;;;6.38;5.53;;;;;;;15.46;nan;101218.50;5067250;28;20410;-83
2022/04/22 12:22:24;;;;;;;11.52;5.90;;;;;;;15.36;nan;101238.19;5070086;28;20024;-81
2022/04/22 12:25:09;;;;;;;10.43;6.32;;;;;;;15.14;nan;101226.81;5067827;28;20550;-81
2022/04/22 12:27:35;;;;;;;6.38;5.28;;;;;;;15.09;nan;101227.63;5065779;28;20036;-83
2022/04/22 12:30:03;;;;;;;10.05;5.97;;;;;;;15.02;nan;101224.34;5069177;28;20063;-80
2022/04/22 12:32:28;;;;;;;8.45;6.05;;;;;;;14.96;nan;101235.41;5065047;28;20145;-81
2022/04/22 12:35:10;;;;;;;8.20;6.13;;;;;;;14.81;nan;101231.56;5069528;28;20059;-81
2022/04/22 12:37:36;;;;;;;10.82;6.85;;;;;;;14.81;nan;101225.38;5071952;28;20040;-82
2022/04/22 12:40:11;;;;;;;7.28;5.47;;;;;;;14.75;nan;101223.75;5066289;28;20025;-81
2022/04/22 12:42:39;;;;;;;7.13;5.22;;;;;;;14.75;nan;101229.13;5068470;28;20031;-82
2022/04/22 12:53:49;;;;;;;17.13;6.68;;;;;;;14.57;nan;101216.91;5058887;28;20044;-79